Hovedside
METAR-TAF:

METAR-TAF

Lufthavner :

Liepāja internasjonale lufthavn

Liepāja, Latvia

breddegrad: 56-31N, lengdegrad: 021-05E, høyde over havet: 5 m

Gjeldene værobservasjon

Denne rapporten ble laget for 27 minutter siden, klokken 19:50 UTC
Vind 2 kt fra Øst
Temperatur 3°C
Luftfuktighet 100%
Trykk 1019 hPa
Sikt: 2500 m
tåke

METAR: EVLA 141950Z AUTO 08002KT 2500 FG BKN019/// 03/03 Q1019

Tid: 22:17 (20:17 UTC)

Varsel

Denne rapporten ble laget for 3 timer og 0 minutter siden, klokken 17:17 UTC
Varsel gyldig fra 14. klokken 18 UTC til 15. klokken 18 UTC
Vind 2 kt fra skiftende retning
Sikt: 6000 m
Spredte skyer i en høyde av 2000 ft
Midlertidig
fra 14. klokken 19 UTC til 15. klokken 06 UTC
Sikt: 0600 m
i en høyde av 100 ft
tåke
Blir
fra 15. klokken 09 UTC til 15. klokken 11 UTC
Vind 10 kt fra Øst-nordøst

TAF: EVLA 141717Z 1418/1518 VRB02KT 6000 SCT020 TEMPO 1419/1506 0600 FG VV001 BECMG 1509/1511 07010KT

Værobservasjoner og værvarsel for over 4000 flyplasser (METAR- og TAF-rapporter).

Tilgjengelige stasjoner er representert av de røde og gule prikkene på kartet.

Hold musepekeren over prikken for å se navnet på stasjonen.

Klikk så for å se værobservasjoner og -varsler.

For å forandre kartet kan du klikke på den grønne knappen med svart kryss for å zoome inn, på den grønne knappen med strek for å zoome ut, eller på de grønne pilene for å se tilstøtende kart.


METAR-TAF: